Time;durP1;ratioP1;P1;durP2;ratioP2;P2;SDS_P1;SDS_P2;PMS_P1;PMS_P2;Temp;Humidity;BMP_temperature;BMP_pressure;BME280_temperature;BME280_humidity;BME280_pressure;Samples;Min_cycle;Max_cycle;Signal;HPM_P1;HPM_P2
2021/03/26 00:01:58;;;;;;;6.10;3.00;;;;;;;1.68;100.00;99902.66;1810133;79;21658;-72
2021/03/26 00:04:26;;;;;;;6.07;3.20;;;;;;;1.67;100.00;99902.77;1809867;79;21035;-72
2021/03/26 00:06:54;;;;;;;6.13;3.80;;;;;;;1.66;100.00;99905.90;1810076;79;20940;-70
2021/03/26 00:09:28;;;;;;;3.33;3.03;;;;;;;1.64;100.00;99898.51;1810118;79;21154;-70
2021/03/26 00:12:09;;;;;;;2.97;2.20;;;;;;;1.65;100.00;99900.22;1845871;76;26761;-70
2021/03/26 00:14:38;;;;;;;7.40;3.60;;;;;;;1.61;100.00;99904.55;1815628;79;20991;-70
2021/03/26 00:17:06;;;;;;;2.90;2.67;;;;;;;1.61;100.00;99901.89;1815904;79;22200;-71
2021/03/26 00:19:36;;;;;;;2.97;2.23;;;;;;;1.57;100.00;99905.27;1815770;79;21039;-70
2021/03/26 00:22:06;;;;;;;8.60;4.07;;;;;;;1.56;100.00;99901.39;1783766;80;21477;-71
2021/03/26 00:24:34;;;;;;;1.97;1.77;;;;;;;1.53;100.00;99905.64;1783669;80;20996;-70
2021/03/26 00:27:02;;;;;;;12.43;3.43;;;;;;;1.53;100.00;99909.15;1783732;80;20881;-70
2021/03/26 00:29:31;;;;;;;2.77;2.33;;;;;;;1.53;100.00;99910.48;1783663;80;21261;-71
2021/03/26 00:31:59;;;;;;;2.27;1.70;;;;;;;1.54;100.00;99912.66;1783514;79;21071;-70
2021/03/26 00:34:28;;;;;;;5.43;3.70;;;;;;;1.54;100.00;99914.86;1783603;80;20980;-70
2021/03/26 00:36:56;;;;;;;4.60;2.47;;;;;;;1.56;100.00;99918.25;1783606;80;20949;-71
2021/03/26 00:39:25;;;;;;;5.20;3.30;;;;;;;1.55;100.00;99917.87;1783847;79;21627;-71
2021/03/26 00:41:53;;;;;;;3.13;2.03;;;;;;;1.56;100.00;99921.38;1783573;80;21408;-70
2021/03/26 00:44:22;;;;;;;5.00;2.80;;;;;;;1.55;100.00;99929.86;1783567;80;20988;-71
2021/03/26 00:46:51;;;;;;;4.33;2.83;;;;;;;1.56;100.00;99928.04;1783772;80;20937;-70
2021/03/26 00:49:19;;;;;;;4.47;1.67;;;;;;;1.55;100.00;99923.70;1783453;80;21567;-70
2021/03/26 00:51:47;;;;;;;4.97;2.73;;;;;;;1.55;100.00;99923.70;1783646;80;21000;-71
2021/03/26 00:54:17;;;;;;;4.33;2.83;;;;;;;1.54;100.00;99928.19;1783614;80;22120;-70
2021/03/26 00:56:46;;;;;;;6.13;2.80;;;;;;;1.54;100.00;99927.31;1783499;80;21489;-68
2021/03/26 00:59:14;;;;;;;3.13;2.17;;;;;;;1.52;100.00;99938.08;1783519;80;20987;-69
2021/03/26 01:01:42;;;;;;;3.90;2.23;;;;;;;1.51;100.00;99937.24;1783561;80;20984;-70
2021/03/26 01:04:11;;;;;;;10.40;3.50;;;;;;;1.50;100.00;99933.36;1783607;80;20960;-70
2021/03/26 01:06:40;;;;;;;3.87;3.17;;;;;;;1.49;100.00;99932.52;1783543;79;21007;-71
2021/03/26 01:09:08;;;;;;;4.30;2.50;;;;;;;1.48;100.00;99938.80;1783669;80;21055;-70
2021/03/26 01:11:39;;;;;;;8.77;3.83;;;;;;;1.47;100.00;99937.11;1797133;79;21113;-70
2021/03/26 01:14:15;;;;;;;5.80;2.62;;;;;;;1.48;100.00;99934.80;1799890;79;21011;-70
2021/03/26 01:16:43;;;;;;;4.97;1.73;;;;;;;1.48;100.00;99933.47;1803739;78;20991;-69
2021/03/26 01:19:13;;;;;;;1.63;1.47;;;;;;;1.47;100.00;99936.24;1803332;79;21372;-71
2021/03/26 01:21:42;;;;;;;5.23;2.60;;;;;;;1.46;100.00;99934.07;1831505;77;21282;-70
2021/03/26 01:24:14;;;;;;;4.30;3.07;;;;;;;1.46;100.00;99934.56;1835769;78;20967;-70
2021/03/26 01:26:43;;;;;;;2.43;1.83;;;;;;;1.45;100.00;99936.39;1835740;77;21003;-70
2021/03/26 01:29:20;;;;;;;1.83;1.73;;;;;;;1.45;100.00;99937.72;1770474;81;21032;-70
2021/03/26 01:31:57;;;;;;;3.57;2.70;;;;;;;1.47;100.00;99934.91;1846015;76;26581;-70
2021/03/26 01:34:26;;;;;;;5.10;3.13;;;;;;;1.43;100.00;99934.78;1815861;79;20952;-69
2021/03/26 01:36:58;;;;;;;7.83;3.62;;;;;;;1.41;100.00;99935.39;1830541;78;26496;-69
2021/03/26 01:39:27;;;;;;;11.77;6.53;;;;;;;1.41;100.00;99939.38;1835604;78;21032;-71
2021/03/26 01:41:56;;;;;;;3.83;2.83;;;;;;;1.39;100.00;99934.16;1835728;77;20973;-71
2021/03/26 01:44:26;;;;;;;6.97;3.10;;;;;;;1.40;100.00;99947.00;1813114;78;20910;-70
2021/03/26 01:46:56;;;;;;;3.33;2.87;;;;;;;1.40;100.00;99941.67;1836555;77;20977;-71
2021/03/26 01:49:26;;;;;;;5.07;3.07;;;;;;;1.40;100.00;99945.20;1835629;78;21101;-70
2021/03/26 01:51:58;;;;;;;2.87;2.60;;;;;;;1.41;100.00;99952.22;1836574;77;20969;-71
2021/03/26 01:54:28;;;;;;;3.37;2.47;;;;;;;1.41;100.00;99952.70;1835668;77;20918;-71
2021/03/26 01:56:57;;;;;;;2.80;2.07;;;;;;;1.40;100.00;99955.86;1835547;77;20985;-71
2021/03/26 01:59:27;;;;;;;3.90;3.50;;;;;;;1.39;100.00;99951.48;1830103;78;21009;-70
2021/03/26 02:02:03;;;;;;;5.43;3.20;;;;;;;1.38;100.00;99959.59;1830030;78;21204;-70
2021/03/26 02:04:41;;;;;;;3.60;2.33;;;;;;;1.36;100.00;99956.19;1826046;78;21032;-70
2021/03/26 02:07:17;;;;;;;5.43;2.87;;;;;;;1.37;100.00;99950.75;1838601;77;26941;-70
2021/03/26 02:09:45;;;;;;;5.20;3.30;;;;;;;1.32;100.00;99951.09;1752206;81;20997;-70
2021/03/26 02:12:23;;;;;;;3.70;2.93;;;;;;;1.32;100.00;99953.75;1732232;81;21354;-69
2021/03/26 02:14:57;;;;;;;3.47;2.70;;;;;;;1.29;100.00;99956.66;1752020;82;21054;-70
2021/03/26 02:17:28;;;;;;;2.80;2.17;;;;;;;1.27;100.00;99954.56;1757685;81;28496;-71
2021/03/26 02:20:10;;;;;;;4.22;2.85;;;;;;;1.22;100.00;99960.74;1679030;85;21095;-71
2021/03/26 02:22:45;;;;;;;3.27;2.67;;;;;;;1.24;100.00;99960.14;1845673;76;27110;-70
2021/03/26 02:25:16;;;;;;;7.17;2.70;;;;;;;1.19;100.00;99965.42;1815943;78;21030;-71
2021/03/26 02:27:44;;;;;;;2.00;1.83;;;;;;;1.16;100.00;99961.18;1815830;79;21281;-70
2021/03/26 02:30:17;;;;;;;4.13;2.80;;;;;;;1.14;100.00;99960.45;1815647;79;20980;-71
2021/03/26 02:32:47;;;;;;;2.43;2.20;;;;;;;1.13;100.00;99965.39;1815839;79;21593;-70
2021/03/26 02:35:39;;;;;;;6.23;3.07;;;;;;;1.09;100.00;99964.77;1728865;81;20952;-71
2021/03/26 02:38:29;;;;;;;2.03;1.53;;;;;;;1.09;100.00;99965.26;1845600;76;26706;-71
2021/03/26 02:41:23;;;;;;;4.07;2.30;;;;;;;1.04;100.00;99964.73;1811417;79;20937;-70
2021/03/26 02:44:20;;;;;;;4.65;2.75;;;;;;;1.01;100.00;99965.83;1813968;79;21803;-71
2021/03/26 02:47:23;;;;;;;6.47;2.80;;;;;;;1.00;100.00;99972.59;1815951;79;20987;-70
2021/03/26 02:50:32;;;;;;;2.43;1.77;;;;;;;0.99;100.00;99968.22;1744381;82;20958;-70
2021/03/26 02:53:24;;;;;;;1.90;1.80;;;;;;;0.99;100.00;99964.22;1747050;82;21001;-71
2021/03/26 02:56:07;;;;;;;2.40;2.20;;;;;;;1.00;100.00;99963.27;1846049;75;26652;-70
2021/03/26 02:58:40;;;;;;;2.73;2.23;;;;;;;0.95;100.00;99964.92;1815949;78;20969;-71
2021/03/26 03:01:24;;;;;;;1.93;1.73;;;;;;;0.93;100.00;99974.35;1811455;78;21210;-70
2021/03/26 03:04:06;;;;;;;1.93;1.40;;;;;;;0.90;100.00;99965.28;1783137;79;21020;-71
2021/03/26 03:06:42;;;;;;;5.30;2.98;;;;;;;0.91;100.00;99983.42;1815987;79;21497;-70
2021/03/26 03:09:22;;;;;;;3.63;2.90;;;;;;;0.90;100.00;99989.70;1815816;79;21000;-71
2021/03/26 03:12:05;;;;;;;2.47;2.27;;;;;;;0.87;100.00;99990.78;1784216;79;21418;-71
2021/03/26 03:14:39;;;;;;;2.93;2.67;;;;;;;0.85;100.00;99995.38;1811050;79;21368;-71
2021/03/26 03:17:20;;;;;;;4.20;2.27;;;;;;;0.84;100.00;99994.14;1744773;81;20927;-71
2021/03/26 03:20:19;;;;;;;7.27;3.97;;;;;;;0.83;100.00;99992.44;1742157;79;21065;-72
2021/03/26 03:23:03;;;;;;;7.53;4.70;;;;;;;0.82;100.00;99990.26;1739991;82;21582;-71
2021/03/26 03:25:32;;;;;;;10.90;5.37;;;;;;;0.83;100.00;99991.10;1736402;82;21571;-72
2021/03/26 03:28:12;;;;;;;4.27;2.70;;;;;;;0.83;100.00;99995.94;1692237;82;21214;-71
2021/03/26 03:30:52;;;;;;;3.87;2.83;;;;;;;0.83;100.00;99992.44;1739939;81;21153;-70
2021/03/26 03:33:45;;;;;;;3.87;2.77;;;;;;;0.81;100.00;99989.88;1740075;82;21026;-70
2021/03/26 03:36:21;;;;;;;3.57;2.90;;;;;;;0.81;100.00;99997.86;1740209;82;21034;-70
2021/03/26 03:39:13;;;;;;;9.43;4.53;;;;;;;0.84;100.00;100004.80;1845755;76;26865;-70
2021/03/26 03:42:18;;;;;;;8.57;3.43;;;;;;;0.80;100.00;100004.62;1811304;79;21000;-70
2021/03/26 03:45:05;;;;;;;7.40;4.03;;;;;;;0.78;100.00;100006.09;1784532;79;22353;-70
2021/03/26 03:47:57;;;;;;;4.07;2.73;;;;;;;0.76;100.00;100010.64;1703990;81;21092;-69
2021/03/26 03:50:41;;;;;;;4.50;2.83;;;;;;;0.75;100.00;100004.97;1721359;82;21512;-70
2021/03/26 03:53:34;;;;;;;10.13;4.73;;;;;;;0.77;100.00;100004.86;1890657;76;26822;-69
2021/03/26 03:56:10;;;;;;;5.27;3.10;;;;;;;0.72;100.00;100006.02;1747428;81;21278;-72
2021/03/26 03:58:42;;;;;;;7.47;3.57;;;;;;;0.73;100.00;100012.22;1747466;82;21207;-71
2021/03/26 04:01:32;;;;;;;7.70;2.47;;;;;;;0.71;100.00;100007.00;1747633;82;21026;-71
2021/03/26 04:04:12;;;;;;;3.03;2.67;;;;;;;0.75;100.00;100007.63;1852590;76;26719;-70
2021/03/26 04:07:06;;;;;;;8.67;4.67;;;;;;;0.72;100.00;100010.50;1778350;80;21098;-71
2021/03/26 04:09:38;;;;;;;9.53;4.50;;;;;;;0.72;100.00;100010.02;1755060;80;21204;-72
2021/03/26 04:12:14;;;;;;;4.37;3.63;;;;;;;0.73;100.00;100000.24;1778379;80;20978;-68
2021/03/26 04:15:15;;;;;;;3.93;3.10;;;;;;;0.76;100.00;100005.32;1778484;80;20965;-71
2021/03/26 04:17:59;;;;;;;3.70;2.50;;;;;;;0.81;100.00;100006.34;1846132;76;27170;-72
2021/03/26 04:20:51;;;;;;;1.13;1.03;;;;;;;0.80;100.00;100015.27;1784163;80;21046;-70
2021/03/26 04:23:34;;;;;;;2.53;1.90;;;;;;;0.83;100.00;100016.39;1852734;76;27217;-70
2021/03/26 04:26:27;;;;;;;3.57;2.60;;;;;;;0.81;100.00;100018.31;1851234;77;20917;-70
2021/03/26 04:29:24;;;;;;;8.00;4.47;;;;;;;0.81;100.00;100025.81;1751493;81;22104;-71
2021/03/26 04:32:07;;;;;;;3.73;2.73;;;;;;;0.82;100.00;100018.21;1747733;82;21033;-72
2021/03/26 04:34:42;;;;;;;4.50;2.53;;;;;;;0.86;100.00;100022.34;1890889;76;27094;-70
2021/03/26 04:37:31;;;;;;;2.10;1.53;;;;;;;0.84;100.00;100029.59;1861680;77;21006;-70
2021/03/26 04:40:33;;;;;;;3.63;1.57;;;;;;;0.83;100.00;100022.55;1780902;80;21336;-69
2021/03/26 04:43:22;;;;;;;2.93;2.10;;;;;;;0.85;100.00;100033.09;1784283;80;21024;-70
2021/03/26 04:46:02;;;;;;;4.63;3.43;;;;;;;0.86;100.00;100038.81;1784327;80;21027;-70
2021/03/26 04:48:58;;;;;;;7.20;4.15;;;;;;;0.88;100.00;100034.22;1748255;82;27530;-70
2021/03/26 04:52:01;;;;;;;3.97;2.80;;;;;;;0.93;100.00;100037.41;1845754;76;27267;-70
2021/03/26 04:54:45;;;;;;;2.37;1.83;;;;;;;0.94;100.00;100049.78;1784701;80;20991;-71
2021/03/26 04:57:47;;;;;;;5.90;3.03;;;;;;;0.97;100.00;100050.86;1846357;76;27218;-70
2021/03/26 05:00:33;;;;;;;5.10;2.77;;;;;;;0.98;100.00;100057.06;1890964;76;26686;-70
2021/03/26 05:03:22;;;;;;;1.90;1.80;;;;;;;0.97;100.00;100064.66;1810366;78;21134;-70
2021/03/26 05:06:00;;;;;;;5.70;3.37;;;;;;;0.97;100.00;100066.84;1810439;79;21622;-73
2021/03/26 05:08:38;;;;;;;4.13;2.80;;;;;;;1.03;100.00;100066.42;1852826;76;26767;-72
2021/03/26 05:11:26;;;;;;;3.67;3.23;;;;;;;1.03;100.00;100070.41;1783599;80;21050;-71
2021/03/26 05:14:00;;;;;;;2.97;2.70;;;;;;;1.05;100.00;100064.98;1823398;77;21207;-72
2021/03/26 05:16:59;;;;;;;2.97;2.73;;;;;;;1.06;100.00;100066.67;1820448;77;20993;-69
2021/03/26 05:20:08;;;;;;;9.90;2.77;;;;;;;1.08;100.00;100074.06;1721460;83;20954;-72
2021/03/26 05:23:01;;;;;;;9.47;3.63;;;;;;;1.16;100.00;100070.87;1845696;75;26772;-70
2021/03/26 05:25:45;;;;;;;9.00;3.90;;;;;;;1.15;100.00;100075.33;1816796;79;21023;-70
2021/03/26 05:28:23;;;;;;;11.87;4.63;;;;;;;1.21;100.00;100070.06;1816619;79;21855;-71
2021/03/26 05:31:31;;;;;;;6.07;3.77;;;;;;;1.26;100.00;100063.44;1846139;76;26751;-71
2021/03/26 05:34:18;;;;;;;6.10;3.63;;;;;;;1.27;100.00;100064.28;1811365;79;20936;-71
2021/03/26 05:37:25;;;;;;;5.00;4.03;;;;;;;1.29;100.00;100071.67;1815309;79;22670;-70
2021/03/26 05:40:28;;;;;;;8.00;3.83;;;;;;;1.30;100.00;100072.90;1816205;79;21091;-70
2021/03/26 05:43:21;;;;;;;3.13;2.13;;;;;;;1.33;100.00;100078.50;1740284;82;20958;-72
2021/03/26 05:46:29;;;;;;;10.98;4.85;;;;;;;1.39;100.00;100080.70;1871783;76;27863;-71
2021/03/26 05:49:27;;;;;;;6.63;3.47;;;;;;;1.49;100.00;100086.23;1890973;75;26762;-70
2021/03/26 05:52:42;;;;;;;6.97;4.83;;;;;;;1.50;100.00;100087.42;1861075;77;21022;-70
2021/03/26 05:55:45;;;;;;;6.03;3.60;;;;;;;1.55;100.00;100092.44;1861883;77;21328;-70
2021/03/26 05:58:30;;;;;;;6.63;3.17;;;;;;;1.60;100.00;100092.11;1861758;77;21140;-70
2021/03/26 06:01:24;;;;;;;3.77;2.73;;;;;;;1.64;100.00;100097.09;1854381;77;21006;-74
2021/03/26 06:04:15;;;;;;;19.23;7.93;;;;;;;1.71;100.00;100102.83;1849755;76;21017;-73
2021/03/26 06:07:32;;;;;;;13.70;7.07;;;;;;;1.77;100.00;100102.39;1848350;76;21018;-74
2021/03/26 06:10:48;;;;;;;6.63;4.97;;;;;;;1.85;100.00;100115.98;1832142;76;21196;-74
2021/03/26 06:13:50;;;;;;;12.87;5.13;;;;;;;1.94;100.00;100115.79;1856994;77;20990;-74
2021/03/26 06:16:54;;;;;;;11.40;6.07;;;;;;;2.04;100.00;100115.97;1780892;80;21056;-74
2021/03/26 06:20:08;;;;;;;6.03;4.13;;;;;;;2.14;100.00;100118.30;1789230;79;21108;-74
2021/03/26 06:23:36;;;;;;;8.60;5.97;;;;;;;2.23;100.00;100125.63;1872998;76;26675;-73
2021/03/26 06:27:00;;;;;;;10.43;3.77;;;;;;;2.24;100.00;100125.98;1847213;76;20954;-74
2021/03/26 06:29:46;;;;;;;3.27;2.83;;;;;;;2.32;100.00;100125.88;1837172;76;21426;-73
2021/03/26 06:32:44;;;;;;;5.30;2.93;;;;;;;2.49;100.00;100129.95;1851205;76;21527;-72
2021/03/26 06:36:04;;;;;;;5.33;2.97;;;;;;;2.68;100.00;100120.90;1846228;76;27019;-73
2021/03/26 06:39:00;;;;;;;5.83;3.23;;;;;;;2.72;100.00;100125.52;1816032;77;20992;-72
2021/03/26 06:42:12;;;;;;;3.77;2.73;;;;;;;2.80;100.00;100127.12;1816083;79;21870;-73
2021/03/26 06:45:08;;;;;;;6.17;3.13;;;;;;;2.91;100.00;100140.48;1816164;79;21024;-73
2021/03/26 06:48:14;;;;;;;3.23;2.03;;;;;;;3.02;100.00;100132.96;1815700;79;20992;-72
2021/03/26 06:51:15;;;;;;;5.53;3.20;;;;;;;3.08;100.00;100131.16;1811897;79;21079;-71
2021/03/26 06:54:05;;;;;;;11.17;4.47;;;;;;;3.13;100.00;100127.61;1815553;79;21451;-73
2021/03/26 06:57:12;;;;;;;3.93;3.53;;;;;;;3.25;100.00;100126.30;1814093;77;21401;-72
2021/03/26 07:00:15;;;;;;;12.83;6.43;;;;;;;3.47;100.00;100125.41;1805324;77;21011;-72
2021/03/26 07:03:32;;;;;;;11.48;5.50;;;;;;;3.72;100.00;100126.48;1796358;77;20976;-72
2021/03/26 07:06:35;;;;;;;5.77;2.70;;;;;;;3.95;100.00;100120.58;1782450;77;21539;-72
2021/03/26 07:09:31;;;;;;;7.10;4.00;;;;;;;4.24;100.00;100117.80;1804726;77;21015;-73
2021/03/26 07:12:28;;;;;;;9.73;5.17;;;;;;;4.65;100.00;100118.80;1824636;77;26500;-73
2021/03/26 07:15:06;;;;;;;11.43;5.67;;;;;;;4.83;100.00;100118.55;1791876;80;20984;-73
2021/03/26 07:18:15;;;;;;;16.10;7.13;;;;;;;5.03;100.00;100124.88;1792026;80;21024;-74
2021/03/26 07:21:25;;;;;;;11.33;5.63;;;;;;;5.27;100.00;100129.08;1803896;79;21001;-74
2021/03/26 07:24:11;;;;;;;7.87;2.77;;;;;;;5.56;100.00;100123.83;1817451;78;21005;-72
2021/03/26 07:26:58;;;;;;;6.67;3.87;;;;;;;5.87;100.00;100125.09;1753326;81;21031;-74
2021/03/26 07:29:53;;;;;;;14.97;7.30;;;;;;;6.18;100.00;100129.03;1711309;83;21396;-75
2021/03/26 07:32:48;;;;;;;7.30;3.33;;;;;;;6.45;100.00;100129.69;1745434;82;21194;-74
2021/03/26 07:35:55;;;;;;;11.30;4.87;;;;;;;6.63;100.00;100120.41;1842742;76;27082;-74
2021/03/26 07:39:06;;;;;;;11.53;5.33;;;;;;;6.71;100.00;100118.33;1800132;79;21515;-72
2021/03/26 07:42:33;;;;;;;9.90;4.87;;;;;;;6.85;100.00;100116.52;1793738;79;21808;-74
2021/03/26 07:45:33;;;;;;;7.03;4.10;;;;;;;6.98;100.00;100117.07;1791547;79;20924;-75
2021/03/26 07:48:43;;;;;;;9.43;3.93;;;;;;;7.21;100.00;100114.87;1809171;79;21008;-75
2021/03/26 07:51:38;;;;;;;7.33;3.57;;;;;;;7.40;100.00;100115.30;1778756;79;20981;-75
2021/03/26 07:54:24;;;;;;;11.90;5.78;;;;;;;7.65;100.00;100110.69;1765153;80;21096;-74
2021/03/26 07:57:13;;;;;;;11.00;6.57;;;;;;;7.83;100.00;100110.75;1766294;80;21653;-75
2021/03/26 08:00:16;;;;;;;7.67;5.30;;;;;;;7.92;100.00;100100.41;1747919;82;21035;-76
2021/03/26 08:03:30;;;;;;;10.93;5.47;;;;;;;8.06;100.00;100099.88;1749228;80;21017;-74
2021/03/26 08:06:27;;;;;;;13.08;5.83;;;;;;;8.28;100.00;100105.28;1743399;82;21235;-73
2021/03/26 08:09:18;;;;;;;10.77;5.10;;;;;;;8.49;100.00;100098.77;1798966;77;26984;-75
2021/03/26 08:12:17;;;;;;;9.23;4.65;;;;;;;8.47;100.00;100102.13;1763228;80;20961;-75
2021/03/26 08:15:25;;;;;;;8.17;4.00;;;;;;;8.40;100.00;100103.72;1764388;80;21068;-74
2021/03/26 08:18:06;;;;;;;8.20;4.57;;;;;;;8.43;100.00;100104.77;1740529;80;21105;-73
2021/03/26 08:20:58;;;;;;;5.50;3.30;;;;;;;8.53;100.00;100107.74;1687565;83;21252;-74
2021/03/26 08:23:49;;;;;;;9.97;6.37;;;;;;;8.79;100.00;100102.86;1825675;76;22573;-73
2021/03/26 08:26:53;;;;;;;9.58;4.92;;;;;;;8.86;100.00;100103.08;1729197;82;21048;-72
2021/03/26 08:29:50;;;;;;;11.70;5.10;;;;;;;8.64;100.00;100105.30;1722337;83;21372;-72
2021/03/26 08:32:36;;;;;;;7.27;4.00;;;;;;;8.28;100.00;100106.62;1721331;83;21076;-73
2021/03/26 08:35:26;;;;;;;8.43;4.87;;;;;;;8.40;100.00;100102.37;1797063;77;22268;-84
2021/03/26 08:38:20;;;;;;;8.30;4.10;;;;;;;8.56;100.00;100109.27;1754587;80;21506;-74
2021/03/26 08:41:11;;;;;;;6.30;3.23;;;;;;;8.69;100.00;100108.37;1774288;80;21088;-76
2021/03/26 08:43:39;;;;;;;8.10;3.90;;;;;;;8.79;100.00;100109.60;1735391;82;21126;-74
2021/03/26 08:46:27;;;;;;;8.90;3.97;;;;;;;9.00;100.00;100107.05;1708079;82;21066;-74
2021/03/26 08:49:31;;;;;;;7.67;4.03;;;;;;;9.15;100.00;100109.99;1706952;84;21493;-73
2021/03/26 08:52:39;;;;;;;5.77;3.77;;;;;;;9.32;100.00;100117.17;1706551;84;21032;-73
2021/03/26 08:55:48;;;;;;;4.10;2.23;;;;;;;9.45;100.00;100112.67;1719737;82;21382;-75
2021/03/26 08:59:06;;;;;;;5.10;3.80;;;;;;;9.73;100.00;100103.83;1830528;77;22786;-73
2021/03/26 09:01:59;;;;;;;5.87;4.13;;;;;;;9.79;100.00;100109.08;1828303;77;21554;-74
2021/03/26 09:05:04;;;;;;;4.80;3.43;;;;;;;9.98;100.00;100109.30;1795208;79;21326;-73
2021/03/26 09:08:12;;;;;;;8.90;3.47;;;;;;;10.24;100.00;100113.23;1821170;77;20981;-71
2021/03/26 09:11:22;;;;;;;7.07;3.60;;;;;;;10.51;100.00;100104.50;1834112;77;21029;-73
2021/03/26 09:14:23;;;;;;;6.40;3.73;;;;;;;10.68;100.00;100113.43;1837421;77;21017;-69
2021/03/26 09:17:08;;;;;;;6.93;3.63;;;;;;;10.80;100.00;100105.31;1832981;77;21010;-71
2021/03/26 09:19:49;;;;;;;3.27;2.63;;;;;;;10.96;100.00;100109.84;1842023;76;22620;-72
2021/03/26 09:22:44;;;;;;;5.87;3.07;;;;;;;11.07;100.00;100112.22;1833440;77;20950;-75
2021/03/26 09:25:36;;;;;;;2.80;2.60;;;;;;;10.80;100.00;100108.02;1836522;77;21004;-74
2021/03/26 09:28:09;;;;;;;4.20;2.60;;;;;;;10.32;100.00;100105.15;1832834;77;21143;-73
2021/03/26 09:31:00;;;;;;;4.60;2.75;;;;;;;10.10;100.00;100106.62;1826631;77;20981;-73
2021/03/26 09:33:29;;;;;;;5.20;3.10;;;;;;;10.25;100.00;100109.02;1822336;77;21112;-73
2021/03/26 09:36:01;;;;;;;4.10;2.73;;;;;;;10.50;100.00;100111.77;1782040;78;20997;-74
2021/03/26 09:38:49;;;;;;;6.27;3.70;;;;;;;10.44;100.00;100112.43;1837509;77;21633;-73
2021/03/26 09:44:08;;;;;;;4.20;2.83;;;;;;;10.61;100.00;100115.48;1817226;76;22764;-72
2021/03/26 09:46:49;;;;;;;2.45;1.55;;;;;;;10.53;100.00;100115.98;1757871;80;21009;-76
2021/03/26 09:49:46;;;;;;;4.53;3.50;;;;;;;10.52;100.00;100120.55;1813243;77;21362;-71
2021/03/26 09:52:32;;;;;;;3.87;2.35;;;;;;;10.66;100.00;100116.33;1797743;77;21085;-72
2021/03/26 09:55:09;;;;;;;4.62;2.95;;;;;;;10.97;100.00;100117.80;1807241;77;21045;-74
2021/03/26 09:58:05;;;;;;;1.87;1.73;;;;;;;11.09;100.00;100109.34;1869168;76;22803;-72
2021/03/26 10:00:59;;;;;;;2.08;1.72;;;;;;;11.04;100.00;100117.12;1828349;77;20906;-71
2021/03/26 10:04:03;;;;;;;3.58;2.05;;;;;;;11.12;100.00;100115.25;1832451;77;21240;-71
2021/03/26 10:06:56;;;;;;;4.45;2.90;;;;;;;11.28;100.00;100117.55;1846138;77;20984;-71
2021/03/26 10:09:38;;;;;;;3.33;2.50;;;;;;;11.13;100.00;100117.44;1841032;77;21563;-70
2021/03/26 10:12:22;;;;;;;2.80;2.35;;;;;;;11.10;100.00;100117.29;1845632;77;21055;-71
2021/03/26 10:15:03;;;;;;;3.27;2.05;;;;;;;11.30;100.00;100113.67;1835867;77;21622;-71
2021/03/26 10:18:09;;;;;;;2.30;2.02;;;;;;;11.35;100.00;100112.64;1817305;77;21196;-69
2021/03/26 10:21:03;;;;;;;3.70;2.50;;;;;;;11.22;100.00;100120.45;1836788;76;21060;-70
2021/03/26 10:23:53;;;;;;;3.47;2.47;;;;;;;11.31;100.00;100123.46;1848533;77;20948;-70
2021/03/26 10:26:43;;;;;;;3.90;2.37;;;;;;;11.49;100.00;100112.91;1836945;77;20922;-71
2021/03/26 10:29:44;;;;;;;5.37;2.50;;;;;;;11.55;100.00;100113.59;1857172;77;21115;-69
2021/03/26 10:32:24;;;;;;;4.05;2.40;;;;;;;11.66;100.00;100124.02;1835052;77;22111;-70
2021/03/26 10:35:20;;;;;;;5.03;3.12;;;;;;;11.93;100.00;100115.98;1829855;77;21064;-69
2021/03/26 10:38:07;;;;;;;4.12;2.55;;;;;;;12.17;100.00;100112.77;1762750;81;22307;-71
2021/03/26 10:40:42;;;;;;;2.58;2.35;;;;;;;12.27;100.00;100113.39;1768671;80;20968;-72
2021/03/26 10:43:27;;;;;;;3.77;2.42;;;;;;;12.18;100.00;100115.80;1764131;79;21234;-71
2021/03/26 10:46:06;;;;;;;3.08;2.55;;;;;;;11.89;100.00;100115.11;1706887;80;21414;-71
2021/03/26 10:48:59;;;;;;;4.97;2.35;;;;;;;11.74;100.00;100113.16;1765935;79;21216;-71
2021/03/26 10:51:58;;;;;;;7.97;4.15;;;;;;;11.53;100.00;100115.63;1764136;79;21008;-69
2021/03/26 10:55:05;;;;;;;5.70;3.75;;;;;;;11.66;100.00;100110.48;1767109;79;21056;-70
2021/03/26 10:57:57;;;;;;;10.00;4.70;;;;;;;11.67;100.00;100116.24;1752272;79;21567;-70
2021/03/26 11:00:39;;;;;;;5.10;2.83;;;;;;;11.51;100.00;100111.73;1739036;81;21253;-71
2021/03/26 11:03:21;;;;;;;8.10;3.70;;;;;;;11.61;100.00;100109.33;1838777;75;27885;-71
2021/03/26 11:05:56;;;;;;;10.08;4.42;;;;;;;11.67;100.00;100109.95;1842691;76;21016;-70
2021/03/26 11:08:35;;;;;;;10.55;4.62;;;;;;;11.48;100.00;100105.83;1790593;80;21195;-69
2021/03/26 11:11:11;;;;;;;3.83;2.70;;;;;;;11.16;100.00;100110.34;1798003;78;20969;-72
2021/03/26 11:14:06;;;;;;;8.93;5.05;;;;;;;10.94;100.00;100115.94;1803580;78;20985;-70
2021/03/26 11:16:41;;;;;;;4.28;2.52;;;;;;;10.96;100.00;100113.42;1819437;78;21016;-70
2021/03/26 11:19:31;;;;;;;8.13;4.25;;;;;;;11.31;100.00;100117.21;1684382;80;21002;-70
2021/03/26 11:22:29;;;;;;;2.70;2.00;;;;;;;11.56;100.00;100112.55;1726204;81;20997;-71
2021/03/26 11:25:09;;;;;;;8.47;3.50;;;;;;;11.74;100.00;100109.09;1845619;76;22797;-72
2021/03/26 11:27:49;;;;;;;10.10;5.12;;;;;;;11.77;100.00;100109.23;1675900;83;21080;-72
2021/03/26 11:30:39;;;;;;;5.17;3.02;;;;;;;11.74;100.00;100117.22;1670055;86;22172;-73
2021/03/26 11:33:40;;;;;;;4.53;2.52;;;;;;;11.81;100.00;100117.37;1680849;84;21646;-72
2021/03/26 11:36:39;;;;;;;4.42;2.25;;;;;;;11.96;100.00;100113.41;1646462;85;21220;-72
2021/03/26 11:39:24;;;;;;;3.45;2.37;;;;;;;12.15;100.00;100102.11;1630585;85;21192;-71
2021/03/26 11:42:14;;;;;;;5.43;3.03;;;;;;;12.39;100.00;100103.46;1870509;75;22792;-72
2021/03/26 11:44:58;;;;;;;7.80;4.10;;;;;;;12.24;100.00;100097.99;1843548;77;20945;-73
2021/03/26 11:47:31;;;;;;;6.20;3.75;;;;;;;11.98;100.00;100116.78;1754000;80;21802;-73
2021/03/26 11:50:09;;;;;;;2.45;2.05;;;;;;;11.76;100.00;100117.88;1747136;80;21214;-75
2021/03/26 11:53:01;;;;;;;2.12;1.90;;;;;;;11.71;100.00;100104.55;1752260;80;21400;-73
2021/03/26 11:55:34;;;;;;;2.85;2.08;;;;;;;11.67;100.00;100105.41;1753645;81;21598;-72
2021/03/26 11:58:20;;;;;;;3.40;2.17;;;;;;;11.46;100.00;100103.81;1752660;80;21089;-71
2021/03/26 12:00:55;;;;;;;4.25;2.55;;;;;;;10.97;100.00;100097.51;1751301;80;21198;-74
2021/03/26 12:03:42;;;;;;;2.10;1.93;;;;;;;10.52;100.00;100096.73;1849674;76;22557;-72
2021/03/26 12:06:27;;;;;;;2.70;1.27;;;;;;;10.38;100.00;100093.68;1818006;78;20998;-72
2021/03/26 12:09:41;;;;;;;4.22;2.65;;;;;;;10.56;100.00;100098.08;1810956;77;22527;-73
2021/03/26 12:12:34;;;;;;;2.22;1.82;;;;;;;10.90;100.00;100085.69;1805137;78;21060;-74
2021/03/26 12:15:09;;;;;;;1.22;1.10;;;;;;;11.35;100.00;100086.92;1779902;80;21019;-73
2021/03/26 12:17:47;;;;;;;3.10;1.62;;;;;;;11.78;100.00;100086.03;1780568;80;21043;-74
2021/03/26 12:20:35;;;;;;;3.85;1.50;;;;;;;12.17;100.00;100081.59;1786792;79;21542;-73
2021/03/26 12:23:36;;;;;;;0.80;0.80;;;;;;;12.61;100.00;100078.20;1846566;76;22754;-74
2021/03/26 12:26:16;;;;;;;0.93;0.90;;;;;;;12.69;100.00;100079.98;1825386;78;21099;-72
2021/03/26 12:29:13;;;;;;;3.33;1.35;;;;;;;12.71;100.00;100085.57;1825318;78;21626;-72
2021/03/26 12:31:54;;;;;;;1.35;1.27;;;;;;;12.58;98.47;100085.86;1825339;77;21006;-71
2021/03/26 12:34:56;;;;;;;1.70;1.47;;;;;;;12.28;94.69;100089.82;1804644;78;21012;-73
2021/03/26 12:37:44;;;;;;;1.62;1.52;;;;;;;12.05;94.35;100083.03;1789518;79;20991;-71
2021/03/26 12:40:38;;;;;;;3.00;2.08;;;;;;;12.09;99.42;100076.22;1800617;79;20984;-71
2021/03/26 12:43:19;;;;;;;2.00;1.87;;;;;;;12.18;97.98;100077.02;1803293;78;21200;-73
2021/03/26 12:46:15;;;;;;;2.92;2.58;;;;;;;12.17;95.69;100082.13;1752759;80;21032;-73
2021/03/26 12:49:07;;;;;;;1.05;1.05;;;;;;;11.98;94.66;100074.78;1760881;80;21645;-71
2021/03/26 12:51:40;;;;;;;0.72;0.72;;;;;;;11.89;99.83;100079.37;1786692;79;21585;-71
2021/03/26 12:54:39;;;;;;;2.15;1.55;;;;;;;12.09;100.00;100077.09;1749136;79;21496;-69
2021/03/26 12:57:17;;;;;;;2.50;1.45;;;;;;;12.28;100.00;100072.20;1761187;80;21335;-70
2021/03/26 12:59:54;;;;;;;1.35;1.17;;;;;;;12.58;100.00;100079.91;1768353;80;21566;-70